sensor_id;sensor_type;location;lat;lon;timestamp;temperature;humidity
17346;DHT22;8790;53.590;10.002;2022-08-19T00:01:44;21.10;99.90
17346;DHT22;8790;53.590;10.002;2022-08-19T00:04:17;21.20;99.90
17346;DHT22;8790;53.590;10.002;2022-08-19T00:06:49;21.00;99.90
17346;DHT22;8790;53.590;10.002;2022-08-19T00:09:23;21.00;99.90
17346;DHT22;8790;53.590;10.002;2022-08-19T00:11:56;20.80;99.90
17346;DHT22;8790;53.590;10.002;2022-08-19T00:14:29;20.80;99.90
17346;DHT22;8790;53.590;10.002;2022-08-19T00:17:03;20.80;99.90
17346;DHT22;8790;53.590;10.002;2022-08-19T00:19:38;20.90;99.90
17346;DHT22;8790;53.590;10.002;2022-08-19T00:22:11;20.80;99.90
17346;DHT22;8790;53.590;10.002;2022-08-19T00:24:42;20.70;99.90
17346;DHT22;8790;53.590;10.002;2022-08-19T00:27:14;20.80;99.90
17346;DHT22;8790;53.590;10.002;2022-08-19T00:29:46;20.80;99.90
17346;DHT22;8790;53.590;10.002;2022-08-19T00:32:19;20.80;99.90
17346;DHT22;8790;53.590;10.002;2022-08-19T00:34:52;20.70;99.90
17346;DHT22;8790;53.590;10.002;2022-08-19T00:37:24;20.70;99.90
17346;DHT22;8790;53.590;10.002;2022-08-19T00:39:57;20.70;99.90
17346;DHT22;8790;53.590;10.002;2022-08-19T00:42:28;20.90;99.90
17346;DHT22;8790;53.590;10.002;2022-08-19T00:45:00;20.80;99.90
17346;DHT22;8790;53.590;10.002;2022-08-19T00:47:33;20.80;99.90
17346;DHT22;8790;53.590;10.002;2022-08-19T00:50:07;20.80;99.90
17346;DHT22;8790;53.590;10.002;2022-08-19T00:52:41;20.80;99.90
17346;DHT22;8790;53.590;10.002;2022-08-19T00:55:19;20.80;99.90
17346;DHT22;8790;53.590;10.002;2022-08-19T00:57:54;20.70;99.90
17346;DHT22;8790;53.590;10.002;2022-08-19T01:00:27;20.70;99.90
17346;DHT22;8790;53.590;10.002;2022-08-19T01:03:01;20.60;99.90
17346;DHT22;8790;53.590;10.002;2022-08-19T01:05:33;20.70;99.90
17346;DHT22;8790;53.590;10.002;2022-08-19T01:08:06;20.80;99.90
17346;DHT22;8790;53.590;10.002;2022-08-19T01:10:41;20.80;99.90
17346;DHT22;8790;53.590;10.002;2022-08-19T01:13:16;20.80;99.90
17346;DHT22;8790;53.590;10.002;2022-08-19T01:15:50;20.80;99.90
17346;DHT22;8790;53.590;10.002;2022-08-19T01:18:25;20.70;99.90
17346;DHT22;8790;53.590;10.002;2022-08-19T01:21:01;20.80;99.90
17346;DHT22;8790;53.590;10.002;2022-08-19T01:23:35;20.70;99.90
17346;DHT22;8790;53.590;10.002;2022-08-19T01:26:17;20.60;99.90
17346;DHT22;8790;53.590;10.002;2022-08-19T01:28:52;20.60;99.90
17346;DHT22;8790;53.590;10.002;2022-08-19T01:31:25;20.70;99.90
17346;DHT22;8790;53.590;10.002;2022-08-19T01:34:01;20.70;99.90
17346;DHT22;8790;53.590;10.002;2022-08-19T01:36:35;20.80;99.90
17346;DHT22;8790;53.590;10.002;2022-08-19T01:39:11;20.80;99.90
17346;DHT22;8790;53.590;10.002;2022-08-19T01:41:43;20.80;99.90
17346;DHT22;8790;53.590;10.002;2022-08-19T01:44:16;20.70;99.90
17346;DHT22;8790;53.590;10.002;2022-08-19T01:46:51;20.80;99.90
17346;DHT22;8790;53.590;10.002;2022-08-19T01:49:24;20.80;99.90
17346;DHT22;8790;53.590;10.002;2022-08-19T01:51:56;20.80;99.90
17346;DHT22;8790;53.590;10.002;2022-08-19T01:54:32;20.70;99.90
17346;DHT22;8790;53.590;10.002;2022-08-19T01:57:08;20.60;99.90
17346;DHT22;8790;53.590;10.002;2022-08-19T01:59:41;20.70;99.90
17346;DHT22;8790;53.590;10.002;2022-08-19T02:02:14;20.70;99.90
17346;DHT22;8790;53.590;10.002;2022-08-19T02:04:45;20.70;99.90
17346;DHT22;8790;53.590;10.002;2022-08-19T02:07:19;20.70;99.90
17346;DHT22;8790;53.590;10.002;2022-08-19T02:09:52;20.60;99.90
17346;DHT22;8790;53.590;10.002;2022-08-19T02:12:23;20.50;99.90
17346;DHT22;8790;53.590;10.002;2022-08-19T02:14:55;20.40;99.90
17346;DHT22;8790;53.590;10.002;2022-08-19T02:17:27;20.60;99.90
17346;DHT22;8790;53.590;10.002;2022-08-19T02:19:59;20.60;99.90
17346;DHT22;8790;53.590;10.002;2022-08-19T02:22:32;20.60;99.90
17346;DHT22;8790;53.590;10.002;2022-08-19T02:25:06;20.40;99.90
17346;DHT22;8790;53.590;10.002;2022-08-19T02:27:39;20.40;99.90
17346;DHT22;8790;53.590;10.002;2022-08-19T02:30:14;20.50;99.90
17346;DHT22;8790;53.590;10.002;2022-08-19T02:32:47;20.50;99.90
17346;DHT22;8790;53.590;10.002;2022-08-19T02:35:19;20.40;99.90
17346;DHT22;8790;53.590;10.002;2022-08-19T02:37:51;20.40;99.90
17346;DHT22;8790;53.590;10.002;2022-08-19T02:40:48;20.40;99.90
17346;DHT22;8790;53.590;10.002;2022-08-19T02:43:22;20.40;99.90
17346;DHT22;8790;53.590;10.002;2022-08-19T02:45:53;20.40;99.90
17346;DHT22;8790;53.590;10.002;2022-08-19T02:48:26;20.50;99.90
17346;DHT22;8790;53.590;10.002;2022-08-19T02:50:57;20.50;99.90
17346;DHT22;8790;53.590;10.002;2022-08-19T02:53:29;20.50;99.90
17346;DHT22;8790;53.590;10.002;2022-08-19T02:56:06;20.50;99.90
17346;DHT22;8790;53.590;10.002;2022-08-19T02:58:38;20.50;99.90
17346;DHT22;8790;53.590;10.002;2022-08-19T03:01:11;20.60;99.90
17346;DHT22;8790;53.590;10.002;2022-08-19T03:03:42;20.60;99.90
17346;DHT22;8790;53.590;10.002;2022-08-19T03:06:15;20.60;99.90
17346;DHT22;8790;53.590;10.002;2022-08-19T03:08:48;20.50;99.90
17346;DHT22;8790;53.590;10.002;2022-08-19T03:11:23;20.30;99.90
17346;DHT22;8790;53.590;10.002;2022-08-19T03:13:56;20.40;99.90
17346;DHT22;8790;53.590;10.002;2022-08-19T03:16:31;20.50;99.90
17346;DHT22;8790;53.590;10.002;2022-08-19T03:19:02;20.50;99.90
17346;DHT22;8790;53.590;10.002;2022-08-19T03:21:35;20.50;99.90
17346;DHT22;8790;53.590;10.002;2022-08-19T03:24:07;20.50;99.90
17346;DHT22;8790;53.590;10.002;2022-08-19T03:26:43;20.50;99.90
17346;DHT22;8790;53.590;10.002;2022-08-19T03:29:16;20.50;99.90
17346;DHT22;8790;53.590;10.002;2022-08-19T03:31:48;20.50;99.90
17346;DHT22;8790;53.590;10.002;2022-08-19T03:34:22;20.50;99.90
17346;DHT22;8790;53.590;10.002;2022-08-19T03:36:58;20.50;99.90
17346;DHT22;8790;53.590;10.002;2022-08-19T03:39:30;20.40;99.90
17346;DHT22;8790;53.590;10.002;2022-08-19T03:42:04;20.30;99.90
17346;DHT22;8790;53.590;10.002;2022-08-19T03:44:36;20.30;99.90
17346;DHT22;8790;53.590;10.002;2022-08-19T03:47:08;20.30;99.90
17346;DHT22;8790;53.590;10.002;2022-08-19T03:49:46;20.10;99.90
17346;DHT22;8790;53.590;10.002;2022-08-19T03:52:17;20.10;99.90
17346;DHT22;8790;53.590;10.002;2022-08-19T03:54:49;20.20;99.90
17346;DHT22;8790;53.590;10.002;2022-08-19T03:57:23;20.20;99.90
17346;DHT22;8790;53.590;10.002;2022-08-19T03:59:55;20.30;99.90
17346;DHT22;8790;53.590;10.002;2022-08-19T04:02:26;20.30;99.90
17346;DHT22;8790;53.590;10.002;2022-08-19T04:04:58;20.40;99.90
17346;DHT22;8790;53.590;10.002;2022-08-19T04:07:30;20.40;99.90
17346;DHT22;8790;53.590;10.002;2022-08-19T04:10:02;20.30;99.90
17346;DHT22;8790;53.590;10.002;2022-08-19T04:12:36;20.30;99.90
17346;DHT22;8790;53.590;10.002;2022-08-19T04:15:09;20.30;99.90
17346;DHT22;8790;53.590;10.002;2022-08-19T04:17:40;20.30;99.90
17346;DHT22;8790;53.590;10.002;2022-08-19T04:20:12;20.30;99.90
17346;DHT22;8790;53.590;10.002;2022-08-19T04:22:44;20.30;99.90
17346;DHT22;8790;53.590;10.002;2022-08-19T04:25:16;20.30;99.90
17346;DHT22;8790;53.590;10.002;2022-08-19T04:27:49;20.30;99.90
17346;DHT22;8790;53.590;10.002;2022-08-19T04:30:20;20.30;99.90
17346;DHT22;8790;53.590;10.002;2022-08-19T04:32:52;20.30;99.90
17346;DHT22;8790;53.590;10.002;2022-08-19T04:35:24;20.30;99.90
17346;DHT22;8790;53.590;10.002;2022-08-19T04:37:56;20.30;99.90
17346;DHT22;8790;53.590;10.002;2022-08-19T04:40:27;20.20;99.90
17346;DHT22;8790;53.590;10.002;2022-08-19T04:43:18;20.30;99.90
17346;DHT22;8790;53.590;10.002;2022-08-19T04:45:50;20.20;99.90
17346;DHT22;8790;53.590;10.002;2022-08-19T04:48:22;20.30;99.90
17346;DHT22;8790;53.590;10.002;2022-08-19T04:50:58;20.30;99.90
17346;DHT22;8790;53.590;10.002;2022-08-19T04:53:32;20.00;99.90
17346;DHT22;8790;53.590;10.002;2022-08-19T04:56:07;20.00;99.90
17346;DHT22;8790;53.590;10.002;2022-08-19T04:58:42;20.10;99.90
17346;DHT22;8790;53.590;10.002;2022-08-19T05:01:17;20.00;99.90
17346;DHT22;8790;53.590;10.002;2022-08-19T05:03:49;20.00;99.90
17346;DHT22;8790;53.590;10.002;2022-08-19T05:06:22;20.10;99.90
17346;DHT22;8790;53.590;10.002;2022-08-19T05:08:55;20.20;99.90
17346;DHT22;8790;53.590;10.002;2022-08-19T05:11:29;20.10;99.90
17346;DHT22;8790;53.590;10.002;2022-08-19T05:14:02;20.10;99.90
17346;DHT22;8790;53.590;10.002;2022-08-19T05:16:34;20.10;99.90
17346;DHT22;8790;53.590;10.002;2022-08-19T05:19:06;20.10;99.90
17346;DHT22;8790;53.590;10.002;2022-08-19T05:21:55;20.10;99.90
17346;DHT22;8790;53.590;10.002;2022-08-19T05:24:45;20.00;99.90
17346;DHT22;8790;53.590;10.002;2022-08-19T05:27:16;19.80;99.90
17346;DHT22;8790;53.590;10.002;2022-08-19T05:29:49;19.90;99.90
17346;DHT22;8790;53.590;10.002;2022-08-19T05:32:21;19.90;99.90
17346;DHT22;8790;53.590;10.002;2022-08-19T05:34:54;19.90;99.90
17346;DHT22;8790;53.590;10.002;2022-08-19T05:37:25;20.00;99.90
17346;DHT22;8790;53.590;10.002;2022-08-19T05:39:58;20.10;99.90
17346;DHT22;8790;53.590;10.002;2022-08-19T05:42:29;19.90;99.90
17346;DHT22;8790;53.590;10.002;2022-08-19T05:45:03;19.80;99.90
17346;DHT22;8790;53.590;10.002;2022-08-19T05:47:35;19.80;99.90
17346;DHT22;8790;53.590;10.002;2022-08-19T05:50:08;19.80;99.90
17346;DHT22;8790;53.590;10.002;2022-08-19T05:52:39;19.80;99.90
17346;DHT22;8790;53.590;10.002;2022-08-19T05:55:12;19.80;99.90
17346;DHT22;8790;53.590;10.002;2022-08-19T05:57:43;19.90;99.90
17346;DHT22;8790;53.590;10.002;2022-08-19T06:00:17;20.00;99.90
17346;DHT22;8790;53.590;10.002;2022-08-19T06:02:49;19.80;99.90
17346;DHT22;8790;53.590;10.002;2022-08-19T06:05:21;19.90;99.90
17346;DHT22;8790;53.590;10.002;2022-08-19T06:07:53;19.80;99.90
17346;DHT22;8790;53.590;10.002;2022-08-19T06:10:25;19.90;99.90
17346;DHT22;8790;53.590;10.002;2022-08-19T06:12:57;19.80;99.90
17346;DHT22;8790;53.590;10.002;2022-08-19T06:15:30;19.90;99.90
17346;DHT22;8790;53.590;10.002;2022-08-19T06:18:02;19.90;99.90
17346;DHT22;8790;53.590;10.002;2022-08-19T06:20:34;19.90;99.90
17346;DHT22;8790;53.590;10.002;2022-08-19T06:23:06;19.70;99.90
17346;DHT22;8790;53.590;10.002;2022-08-19T06:25:39;19.90;99.90
17346;DHT22;8790;53.590;10.002;2022-08-19T06:28:11;19.80;99.90
17346;DHT22;8790;53.590;10.002;2022-08-19T06:30:44;19.90;99.90
17346;DHT22;8790;53.590;10.002;2022-08-19T06:33:16;20.00;99.90
17346;DHT22;8790;53.590;10.002;2022-08-19T06:35:47;19.90;99.90
17346;DHT22;8790;53.590;10.002;2022-08-19T06:38:19;20.00;99.90
17346;DHT22;8790;53.590;10.002;2022-08-19T06:41:00;20.00;99.90
17346;DHT22;8790;53.590;10.002;2022-08-19T06:43:32;20.10;99.90
17346;DHT22;8790;53.590;10.002;2022-08-19T06:46:09;20.10;99.90
17346;DHT22;8790;53.590;10.002;2022-08-19T06:48:42;20.00;99.90
17346;DHT22;8790;53.590;10.002;2022-08-19T06:51:15;20.00;99.90
17346;DHT22;8790;53.590;10.002;2022-08-19T06:53:50;20.00;99.90
17346;DHT22;8790;53.590;10.002;2022-08-19T06:56:24;19.90;99.90
17346;DHT22;8790;53.590;10.002;2022-08-19T06:59:02;20.10;99.90
17346;DHT22;8790;53.590;10.002;2022-08-19T07:01:37;20.10;99.90
17346;DHT22;8790;53.590;10.002;2022-08-19T07:04:09;20.10;99.90
17346;DHT22;8790;53.590;10.002;2022-08-19T07:06:42;20.10;99.90
17346;DHT22;8790;53.590;10.002;2022-08-19T07:09:17;20.10;99.90
17346;DHT22;8790;53.590;10.002;2022-08-19T07:11:50;20.10;99.90
17346;DHT22;8790;53.590;10.002;2022-08-19T07:14:27;20.20;99.90
17346;DHT22;8790;53.590;10.002;2022-08-19T07:17:00;20.10;99.90
17346;DHT22;8790;53.590;10.002;2022-08-19T07:19:32;20.10;99.90
17346;DHT22;8790;53.590;10.002;2022-08-19T07:22:06;20.00;99.90
17346;DHT22;8790;53.590;10.002;2022-08-19T07:24:38;20.10;99.90
17346;DHT22;8790;53.590;10.002;2022-08-19T07:27:10;20.20;99.90
17346;DHT22;8790;53.590;10.002;2022-08-19T07:29:41;20.30;99.90
17346;DHT22;8790;53.590;10.002;2022-08-19T07:32:14;20.30;99.90
17346;DHT22;8790;53.590;10.002;2022-08-19T07:34:46;20.30;99.90
17346;DHT22;8790;53.590;10.002;2022-08-19T07:37:18;20.20;99.90
17346;DHT22;8790;53.590;10.002;2022-08-19T07:39:50;20.20;99.90
17346;DHT22;8790;53.590;10.002;2022-08-19T07:42:21;20.20;99.90
17346;DHT22;8790;53.590;10.002;2022-08-19T07:44:53;20.30;99.90
17346;DHT22;8790;53.590;10.002;2022-08-19T07:47:26;20.30;99.90
17346;DHT22;8790;53.590;10.002;2022-08-19T07:49:58;20.30;99.90
17346;DHT22;8790;53.590;10.002;2022-08-19T07:52:30;20.30;99.90
17346;DHT22;8790;53.590;10.002;2022-08-19T07:55:02;20.30;99.90
17346;DHT22;8790;53.590;10.002;2022-08-19T07:57:34;20.40;99.90
17346;DHT22;8790;53.590;10.002;2022-08-19T08:00:07;20.40;99.90
17346;DHT22;8790;53.590;10.002;2022-08-19T08:02:44;20.40;99.90
17346;DHT22;8790;53.590;10.002;2022-08-19T08:05:15;20.40;99.90
17346;DHT22;8790;53.590;10.002;2022-08-19T08:08:19;20.40;99.90
17346;DHT22;8790;53.590;10.002;2022-08-19T08:11:08;20.40;99.90
17346;DHT22;8790;53.590;10.002;2022-08-19T08:13:41;20.40;99.90
17346;DHT22;8790;53.590;10.002;2022-08-19T08:16:12;20.30;99.90
17346;DHT22;8790;53.590;10.002;2022-08-19T08:18:45;20.40;99.90
17346;DHT22;8790;53.590;10.002;2022-08-19T08:21:17;20.30;99.90
17346;DHT22;8790;53.590;10.002;2022-08-19T08:23:49;20.30;99.90
17346;DHT22;8790;53.590;10.002;2022-08-19T08:26:22;20.30;99.90
17346;DHT22;8790;53.590;10.002;2022-08-19T08:28:55;20.30;99.90
17346;DHT22;8790;53.590;10.002;2022-08-19T08:31:27;20.30;99.90
17346;DHT22;8790;53.590;10.002;2022-08-19T08:34:00;20.30;99.90
17346;DHT22;8790;53.590;10.002;2022-08-19T08:36:32;20.30;99.90
17346;DHT22;8790;53.590;10.002;2022-08-19T08:39:04;20.30;99.90
17346;DHT22;8790;53.590;10.002;2022-08-19T08:41:41;20.30;99.90
17346;DHT22;8790;53.590;10.002;2022-08-19T08:44:19;20.20;99.90
17346;DHT22;8790;53.590;10.002;2022-08-19T08:46:55;20.20;99.90
17346;DHT22;8790;53.590;10.002;2022-08-19T08:49:33;20.20;99.90
17346;DHT22;8790;53.590;10.002;2022-08-19T08:52:12;20.20;99.90
17346;DHT22;8790;53.590;10.002;2022-08-19T08:54:48;20.20;99.90
17346;DHT22;8790;53.590;10.002;2022-08-19T08:57:26;20.20;99.90
17346;DHT22;8790;53.590;10.002;2022-08-19T09:00:00;20.20;99.90
17346;DHT22;8790;53.590;10.002;2022-08-19T09:02:35;20.30;99.90
17346;DHT22;8790;53.590;10.002;2022-08-19T09:05:08;20.30;99.90
17346;DHT22;8790;53.590;10.002;2022-08-19T09:07:49;20.30;99.90
17346;DHT22;8790;53.590;10.002;2022-08-19T09:10:29;20.40;99.90
17346;DHT22;8790;53.590;10.002;2022-08-19T09:13:07;20.30;99.90
17346;DHT22;8790;53.590;10.002;2022-08-19T09:15:46;20.30;99.90
17346;DHT22;8790;53.590;10.002;2022-08-19T09:18:18;20.20;99.90
17346;DHT22;8790;53.590;10.002;2022-08-19T09:20:52;20.30;99.90
17346;DHT22;8790;53.590;10.002;2022-08-19T09:23:23;20.30;99.90
17346;DHT22;8790;53.590;10.002;2022-08-19T09:25:55;20.30;99.90
17346;DHT22;8790;53.590;10.002;2022-08-19T09:28:27;20.30;99.90
17346;DHT22;8790;53.590;10.002;2022-08-19T09:30:59;20.30;99.90
17346;DHT22;8790;53.590;10.002;2022-08-19T09:33:31;20.40;99.90
17346;DHT22;8790;53.590;10.002;2022-08-19T09:36:07;20.30;99.90
17346;DHT22;8790;53.590;10.002;2022-08-19T09:38:40;20.30;99.90
17346;DHT22;8790;53.590;10.002;2022-08-19T09:41:14;20.40;99.90
17346;DHT22;8790;53.590;10.002;2022-08-19T09:43:47;20.40;99.90
17346;DHT22;8790;53.590;10.002;2022-08-19T09:46:25;20.40;99.90
17346;DHT22;8790;53.590;10.002;2022-08-19T09:48:59;20.40;99.90
17346;DHT22;8790;53.590;10.002;2022-08-19T09:51:33;20.40;99.90
17346;DHT22;8790;53.590;10.002;2022-08-19T09:54:04;20.40;99.90
17346;DHT22;8790;53.590;10.002;2022-08-19T09:56:36;20.40;99.90
17346;DHT22;8790;53.590;10.002;2022-08-19T09:59:08;20.50;99.90
17346;DHT22;8790;53.590;10.002;2022-08-19T10:01:40;20.40;99.90
17346;DHT22;8790;53.590;10.002;2022-08-19T10:04:12;20.30;99.90
17346;DHT22;8790;53.590;10.002;2022-08-19T10:06:45;20.40;99.90
17346;DHT22;8790;53.590;10.002;2022-08-19T10:09:17;20.50;99.90
17346;DHT22;8790;53.590;10.002;2022-08-19T10:11:49;20.50;99.90
17346;DHT22;8790;53.590;10.002;2022-08-19T10:14:21;20.50;99.90
17346;DHT22;8790;53.590;10.002;2022-08-19T10:16:53;20.50;99.90
17346;DHT22;8790;53.590;10.002;2022-08-19T10:19:26;20.60;99.90
17346;DHT22;8790;53.590;10.002;2022-08-19T10:22:02;20.60;99.90
17346;DHT22;8790;53.590;10.002;2022-08-19T10:24:34;20.60;99.90
17346;DHT22;8790;53.590;10.002;2022-08-19T10:27:06;20.70;99.90
17346;DHT22;8790;53.590;10.002;2022-08-19T10:29:38;20.70;99.90
17346;DHT22;8790;53.590;10.002;2022-08-19T10:32:09;20.70;99.90
17346;DHT22;8790;53.590;10.002;2022-08-19T10:34:41;20.70;99.90
17346;DHT22;8790;53.590;10.002;2022-08-19T10:37:16;20.70;99.90
17346;DHT22;8790;53.590;10.002;2022-08-19T10:39:47;20.80;99.90
17346;DHT22;8790;53.590;10.002;2022-08-19T10:42:19;20.70;99.90
17346;DHT22;8790;53.590;10.002;2022-08-19T10:44:51;20.70;99.90
17346;DHT22;8790;53.590;10.002;2022-08-19T10:47:23;20.60;99.90
17346;DHT22;8790;53.590;10.002;2022-08-19T10:49:55;20.60;99.90
17346;DHT22;8790;53.590;10.002;2022-08-19T10:52:47;20.60;99.90
17346;DHT22;8790;53.590;10.002;2022-08-19T10:55:22;20.60;99.90
17346;DHT22;8790;53.590;10.002;2022-08-19T10:58:13;20.70;99.90
17346;DHT22;8790;53.590;10.002;2022-08-19T11:00:51;20.70;99.90
17346;DHT22;8790;53.590;10.002;2022-08-19T11:03:24;20.70;99.90
17346;DHT22;8790;53.590;10.002;2022-08-19T11:05:58;20.70;99.90
17346;DHT22;8790;53.590;10.002;2022-08-19T11:08:31;20.70;99.90
17346;DHT22;8790;53.590;10.002;2022-08-19T11:11:06;20.70;99.90
17346;DHT22;8790;53.590;10.002;2022-08-19T11:13:39;20.60;99.90
17346;DHT22;8790;53.590;10.002;2022-08-19T11:16:13;20.60;99.90
17346;DHT22;8790;53.590;10.002;2022-08-19T11:18:49;20.70;99.90
17346;DHT22;8790;53.590;10.002;2022-08-19T11:21:23;20.60;99.90
17346;DHT22;8790;53.590;10.002;2022-08-19T11:23:59;20.60;99.90
17346;DHT22;8790;53.590;10.002;2022-08-19T11:26:32;20.70;99.90
17346;DHT22;8790;53.590;10.002;2022-08-19T11:29:05;20.80;99.90
17346;DHT22;8790;53.590;10.002;2022-08-19T11:31:43;20.80;99.90
17346;DHT22;8790;53.590;10.002;2022-08-19T11:34:18;20.90;99.90
17346;DHT22;8790;53.590;10.002;2022-08-19T11:36:51;20.90;99.90
17346;DHT22;8790;53.590;10.002;2022-08-19T11:39:26;21.00;99.90
17346;DHT22;8790;53.590;10.002;2022-08-19T11:41:59;21.10;99.90
17346;DHT22;8790;53.590;10.002;2022-08-19T11:44:31;21.10;99.90
17346;DHT22;8790;53.590;10.002;2022-08-19T11:47:04;21.10;99.90
17346;DHT22;8790;53.590;10.002;2022-08-19T11:49:37;21.20;99.90
17346;DHT22;8790;53.590;10.002;2022-08-19T11:52:09;21.30;99.90
17346;DHT22;8790;53.590;10.002;2022-08-19T11:54:42;21.30;99.90
17346;DHT22;8790;53.590;10.002;2022-08-19T11:57:14;21.30;99.90
17346;DHT22;8790;53.590;10.002;2022-08-19T11:59:48;21.30;99.90
17346;DHT22;8790;53.590;10.002;2022-08-19T12:02:20;21.40;99.90
17346;DHT22;8790;53.590;10.002;2022-08-19T12:04:53;21.40;99.90
17346;DHT22;8790;53.590;10.002;2022-08-19T12:07:26;21.40;99.90
17346;DHT22;8790;53.590;10.002;2022-08-19T12:09:59;21.50;99.90
17346;DHT22;8790;53.590;10.002;2022-08-19T12:12:30;21.50;99.90
17346;DHT22;8790;53.590;10.002;2022-08-19T12:15:03;21.40;99.90
17346;DHT22;8790;53.590;10.002;2022-08-19T12:17:35;21.50;99.90
17346;DHT22;8790;53.590;10.002;2022-08-19T12:20:08;21.50;99.90
17346;DHT22;8790;53.590;10.002;2022-08-19T12:22:41;21.50;99.90
17346;DHT22;8790;53.590;10.002;2022-08-19T12:25:14;21.50;99.90
17346;DHT22;8790;53.590;10.002;2022-08-19T12:27:46;21.50;99.90
17346;DHT22;8790;53.590;10.002;2022-08-19T12:30:17;21.50;99.90
17346;DHT22;8790;53.590;10.002;2022-08-19T12:32:50;21.60;99.90
17346;DHT22;8790;53.590;10.002;2022-08-19T12:35:22;21.70;99.90
17346;DHT22;8790;53.590;10.002;2022-08-19T12:37:53;21.70;99.90
17346;DHT22;8790;53.590;10.002;2022-08-19T12:40:27;21.70;99.90
17346;DHT22;8790;53.590;10.002;2022-08-19T12:42:59;21.80;99.90
17346;DHT22;8790;53.590;10.002;2022-08-19T12:45:30;21.80;99.90
17346;DHT22;8790;53.590;10.002;2022-08-19T12:48:02;21.90;99.90
17346;DHT22;8790;53.590;10.002;2022-08-19T12:50:34;21.90;99.90
17346;DHT22;8790;53.590;10.002;2022-08-19T12:53:06;21.90;99.90
17346;DHT22;8790;53.590;10.002;2022-08-19T12:55:39;21.90;99.90
17346;DHT22;8790;53.590;10.002;2022-08-19T12:58:11;21.90;99.90
17346;DHT22;8790;53.590;10.002;2022-08-19T13:00:43;21.90;99.90
17346;DHT22;8790;53.590;10.002;2022-08-19T13:03:15;22.00;99.90
17346;DHT22;8790;53.590;10.002;2022-08-19T13:05:47;22.00;99.90
17346;DHT22;8790;53.590;10.002;2022-08-19T13:08:20;22.00;99.90
17346;DHT22;8790;53.590;10.002;2022-08-19T13:10:53;22.10;99.90
17346;DHT22;8790;53.590;10.002;2022-08-19T13:13:25;22.10;99.90
17346;DHT22;8790;53.590;10.002;2022-08-19T13:16:00;22.10;99.90
17346;DHT22;8790;53.590;10.002;2022-08-19T13:18:33;22.10;99.90
17346;DHT22;8790;53.590;10.002;2022-08-19T13:21:05;22.10;99.90
17346;DHT22;8790;53.590;10.002;2022-08-19T13:23:37;22.10;99.90
17346;DHT22;8790;53.590;10.002;2022-08-19T13:26:11;22.10;99.90
17346;DHT22;8790;53.590;10.002;2022-08-19T13:28:44;22.10;99.90
17346;DHT22;8790;53.590;10.002;2022-08-19T13:31:35;22.20;99.90
17346;DHT22;8790;53.590;10.002;2022-08-19T13:34:34;22.20;99.90
17346;DHT22;8790;53.590;10.002;2022-08-19T13:37:07;22.20;99.90
17346;DHT22;8790;53.590;10.002;2022-08-19T13:39:39;22.20;99.90
17346;DHT22;8790;53.590;10.002;2022-08-19T13:42:12;22.20;99.90
17346;DHT22;8790;53.590;10.002;2022-08-19T13:44:44;22.20;99.90
17346;DHT22;8790;53.590;10.002;2022-08-19T13:47:18;22.20;99.90
17346;DHT22;8790;53.590;10.002;2022-08-19T13:49:50;22.20;99.90
17346;DHT22;8790;53.590;10.002;2022-08-19T13:52:21;22.20;99.90
17346;DHT22;8790;53.590;10.002;2022-08-19T13:54:53;22.30;99.90
17346;DHT22;8790;53.590;10.002;2022-08-19T13:57:26;22.20;99.90
17346;DHT22;8790;53.590;10.002;2022-08-19T13:59:58;22.20;99.90
17346;DHT22;8790;53.590;10.002;2022-08-19T14:02:30;22.20;99.90
17346;DHT22;8790;53.590;10.002;2022-08-19T14:05:02;22.20;99.90
17346;DHT22;8790;53.590;10.002;2022-08-19T14:07:34;22.20;99.90
17346;DHT22;8790;53.590;10.002;2022-08-19T14:10:08;22.20;99.90
17346;DHT22;8790;53.590;10.002;2022-08-19T14:12:43;22.20;99.90
17346;DHT22;8790;53.590;10.002;2022-08-19T14:15:15;22.20;99.90
17346;DHT22;8790;53.590;10.002;2022-08-19T14:17:47;22.20;99.90
17346;DHT22;8790;53.590;10.002;2022-08-19T14:20:20;22.10;99.90
17346;DHT22;8790;53.590;10.002;2022-08-19T14:22:52;22.10;99.90
17346;DHT22;8790;53.590;10.002;2022-08-19T14:25:26;22.10;99.90
17346;DHT22;8790;53.590;10.002;2022-08-19T14:28:00;22.20;99.90
17346;DHT22;8790;53.590;10.002;2022-08-19T14:30:34;22.20;99.90
17346;DHT22;8790;53.590;10.002;2022-08-19T14:33:08;22.20;99.90
17346;DHT22;8790;53.590;10.002;2022-08-19T14:35:39;22.20;99.90
17346;DHT22;8790;53.590;10.002;2022-08-19T14:38:17;22.30;99.90
17346;DHT22;8790;53.590;10.002;2022-08-19T14:40:49;22.30;99.90
17346;DHT22;8790;53.590;10.002;2022-08-19T14:43:23;22.40;99.90
17346;DHT22;8790;53.590;10.002;2022-08-19T14:45:55;22.30;99.90
17346;DHT22;8790;53.590;10.002;2022-08-19T14:48:27;22.30;99.90
17346;DHT22;8790;53.590;10.002;2022-08-19T14:50:59;22.30;99.90
17346;DHT22;8790;53.590;10.002;2022-08-19T14:53:30;22.30;99.90
17346;DHT22;8790;53.590;10.002;2022-08-19T14:56:08;22.30;99.90
17346;DHT22;8790;53.590;10.002;2022-08-19T14:58:42;22.30;99.90
17346;DHT22;8790;53.590;10.002;2022-08-19T15:01:14;22.30;99.90
17346;DHT22;8790;53.590;10.002;2022-08-19T15:03:47;22.30;99.90
17346;DHT22;8790;53.590;10.002;2022-08-19T15:06:20;22.30;99.90
17346;DHT22;8790;53.590;10.002;2022-08-19T15:08:53;22.30;99.90
17346;DHT22;8790;53.590;10.002;2022-08-19T15:11:26;22.30;99.90
17346;DHT22;8790;53.590;10.002;2022-08-19T15:14:00;22.30;99.90
17346;DHT22;8790;53.590;10.002;2022-08-19T15:16:32;22.40;99.90
17346;DHT22;8790;53.590;10.002;2022-08-19T15:19:04;22.40;99.90
17346;DHT22;8790;53.590;10.002;2022-08-19T15:21:36;22.30;99.90
17346;DHT22;8790;53.590;10.002;2022-08-19T15:24:08;22.40;99.90
17346;DHT22;8790;53.590;10.002;2022-08-19T15:26:39;22.30;99.90
17346;DHT22;8790;53.590;10.002;2022-08-19T15:29:12;22.30;99.90
17346;DHT22;8790;53.590;10.002;2022-08-19T15:31:44;22.30;99.90
17346;DHT22;8790;53.590;10.002;2022-08-19T15:34:16;22.30;99.90
17346;DHT22;8790;53.590;10.002;2022-08-19T15:36:48;22.40;99.90
17346;DHT22;8790;53.590;10.002;2022-08-19T15:39:20;22.40;99.90
17346;DHT22;8790;53.590;10.002;2022-08-19T15:41:52;22.50;99.90
17346;DHT22;8790;53.590;10.002;2022-08-19T15:44:25;22.50;99.90
17346;DHT22;8790;53.590;10.002;2022-08-19T15:46:57;22.50;99.90
17346;DHT22;8790;53.590;10.002;2022-08-19T15:49:29;22.60;99.90
17346;DHT22;8790;53.590;10.002;2022-08-19T15:52:00;22.50;99.90
17346;DHT22;8790;53.590;10.002;2022-08-19T15:54:32;22.50;99.90
17346;DHT22;8790;53.590;10.002;2022-08-19T15:57:05;22.50;99.90
17346;DHT22;8790;53.590;10.002;2022-08-19T15:59:55;22.50;99.90
17346;DHT22;8790;53.590;10.002;2022-08-19T16:02:45;22.60;99.90
17346;DHT22;8790;53.590;10.002;2022-08-19T16:05:34;22.60;99.90
17346;DHT22;8790;53.590;10.002;2022-08-19T16:08:23;22.60;99.90
17346;DHT22;8790;53.590;10.002;2022-08-19T16:10:55;22.50;99.90